sensor_id;sensor_type;location;lat;lon;timestamp;pressure;altitude;pressure_sealevel;temperature;humidity
60642;BME280;46837;52.446;-1.930;2023-05-15T00:00:09;100518.25;;;12.25;72.68
60642;BME280;46837;52.446;-1.930;2023-05-15T00:01:09;100516.61;;;12.26;72.72
60642;BME280;46837;52.446;-1.930;2023-05-15T00:02:09;100523.62;;;12.23;72.70
60642;BME280;46837;52.446;-1.930;2023-05-15T00:03:09;100526.08;;;12.20;72.69
60642;BME280;46837;52.446;-1.930;2023-05-15T00:04:09;100528.46;;;12.14;72.86
60642;BME280;46837;52.446;-1.930;2023-05-15T00:05:09;100522.29;;;12.11;72.88
60642;BME280;46837;52.446;-1.930;2023-05-15T00:06:09;100523.26;;;12.12;72.97
60642;BME280;46837;52.446;-1.930;2023-05-15T00:07:09;100525.51;;;12.07;72.83
60642;BME280;46837;52.446;-1.930;2023-05-15T00:08:09;100533.92;;;11.97;73.30
60642;BME280;46837;52.446;-1.930;2023-05-15T00:09:09;100520.82;;;11.96;73.17
60642;BME280;46837;52.446;-1.930;2023-05-15T00:10:09;100520.43;;;11.98;73.04
60642;BME280;46837;52.446;-1.930;2023-05-15T00:11:09;100525.12;;;11.90;73.21
60642;BME280;46837;52.446;-1.930;2023-05-15T00:12:09;100530.18;;;11.95;73.16
60642;BME280;46837;52.446;-1.930;2023-05-15T00:13:09;100526.52;;;11.96;73.10
60642;BME280;46837;52.446;-1.930;2023-05-15T00:14:09;100529.42;;;12.00;73.01
60642;BME280;46837;52.446;-1.930;2023-05-15T00:15:09;100535.29;;;12.02;72.88
60642;BME280;46837;52.446;-1.930;2023-05-15T00:16:09;100533.51;;;11.92;72.99
60642;BME280;46837;52.446;-1.930;2023-05-15T00:17:09;100528.76;;;11.98;72.97
60642;BME280;46837;52.446;-1.930;2023-05-15T00:18:09;100528.29;;;12.03;72.69
60642;BME280;46837;52.446;-1.930;2023-05-15T00:19:09;100535.18;;;12.01;72.79
60642;BME280;46837;52.446;-1.930;2023-05-15T00:20:09;100531.04;;;11.94;72.81
60642;BME280;46837;52.446;-1.930;2023-05-15T00:21:09;100526.81;;;11.90;72.79
60642;BME280;46837;52.446;-1.930;2023-05-15T00:22:09;100528.40;;;11.83;72.87
60642;BME280;46837;52.446;-1.930;2023-05-15T00:23:09;100530.81;;;11.83;72.86
60642;BME280;46837;52.446;-1.930;2023-05-15T00:24:09;100528.71;;;11.79;72.70
60642;BME280;46837;52.446;-1.930;2023-05-15T00:25:09;100530.79;;;11.77;72.84
60642;BME280;46837;52.446;-1.930;2023-05-15T00:26:09;100530.05;;;11.86;72.61
60642;BME280;46837;52.446;-1.930;2023-05-15T00:27:09;100528.57;;;11.88;72.40
60642;BME280;46837;52.446;-1.930;2023-05-15T00:28:09;100530.15;;;11.85;72.34
60642;BME280;46837;52.446;-1.930;2023-05-15T00:29:09;100527.85;;;11.81;72.23
60642;BME280;46837;52.446;-1.930;2023-05-15T00:30:09;100529.32;;;11.78;72.07
60642;BME280;46837;52.446;-1.930;2023-05-15T00:31:09;100528.20;;;11.73;72.14
60642;BME280;46837;52.446;-1.930;2023-05-15T00:32:09;100535.10;;;11.71;72.09
60642;BME280;46837;52.446;-1.930;2023-05-15T00:33:09;100536.44;;;11.66;72.08
60642;BME280;46837;52.446;-1.930;2023-05-15T00:34:09;100534.53;;;11.66;72.24
60642;BME280;46837;52.446;-1.930;2023-05-15T00:35:09;100537.34;;;11.70;72.08
60642;BME280;46837;52.446;-1.930;2023-05-15T00:36:09;100534.10;;;11.68;72.01
60642;BME280;46837;52.446;-1.930;2023-05-15T00:37:09;100533.28;;;11.68;71.86
60642;BME280;46837;52.446;-1.930;2023-05-15T00:38:10;100536.02;;;11.70;71.79
60642;BME280;46837;52.446;-1.930;2023-05-15T00:39:09;100531.54;;;11.68;71.64
60642;BME280;46837;52.446;-1.930;2023-05-15T00:40:09;100536.76;;;11.62;71.74
60642;BME280;46837;52.446;-1.930;2023-05-15T00:41:09;100531.30;;;11.67;71.71
60642;BME280;46837;52.446;-1.930;2023-05-15T00:42:09;100533.38;;;11.66;71.66
60642;BME280;46837;52.446;-1.930;2023-05-15T00:43:09;100537.24;;;11.60;71.67
60642;BME280;46837;52.446;-1.930;2023-05-15T00:44:09;100538.78;;;11.52;71.86
60642;BME280;46837;52.446;-1.930;2023-05-15T00:45:09;100539.36;;;11.48;71.82
60642;BME280;46837;52.446;-1.930;2023-05-15T00:46:09;100537.45;;;11.48;71.95
60642;BME280;46837;52.446;-1.930;2023-05-15T00:47:10;100539.08;;;11.55;71.80
60642;BME280;46837;52.446;-1.930;2023-05-15T00:48:09;100539.31;;;11.49;71.80
60642;BME280;46837;52.446;-1.930;2023-05-15T00:49:09;100538.71;;;11.46;71.80
60642;BME280;46837;52.446;-1.930;2023-05-15T00:50:11;100538.07;;;11.40;72.06
60642;BME280;46837;52.446;-1.930;2023-05-15T00:51:09;100534.89;;;11.41;72.06
60642;BME280;46837;52.446;-1.930;2023-05-15T00:52:10;100540.45;;;11.38;72.07
60642;BME280;46837;52.446;-1.930;2023-05-15T00:53:09;100534.12;;;11.37;71.98
60642;BME280;46837;52.446;-1.930;2023-05-15T00:54:09;100541.44;;;11.36;71.98
60642;BME280;46837;52.446;-1.930;2023-05-15T00:55:09;100536.66;;;11.24;72.10
60642;BME280;46837;52.446;-1.930;2023-05-15T00:56:10;100539.58;;;11.28;72.10
60642;BME280;46837;52.446;-1.930;2023-05-15T00:57:09;100539.36;;;11.28;72.00
60642;BME280;46837;52.446;-1.930;2023-05-15T00:58:09;100537.71;;;11.27;72.01
60642;BME280;46837;52.446;-1.930;2023-05-15T00:59:09;100541.11;;;11.20;72.10
60642;BME280;46837;52.446;-1.930;2023-05-15T01:00:12;100539.18;;;11.23;72.17
60642;BME280;46837;52.446;-1.930;2023-05-15T01:01:09;100539.41;;;11.28;71.91
60642;BME280;46837;52.446;-1.930;2023-05-15T01:02:09;100539.58;;;11.28;71.78
60642;BME280;46837;52.446;-1.930;2023-05-15T01:03:09;100539.58;;;11.28;71.79
60642;BME280;46837;52.446;-1.930;2023-05-15T01:04:09;100537.80;;;11.32;71.59
60642;BME280;46837;52.446;-1.930;2023-05-15T01:05:09;100539.33;;;11.31;71.53
60642;BME280;46837;52.446;-1.930;2023-05-15T01:06:09;100536.64;;;11.29;71.52
60642;BME280;46837;52.446;-1.930;2023-05-15T01:07:09;100529.57;;;11.20;71.69
60642;BME280;46837;52.446;-1.930;2023-05-15T01:08:18;100535.92;;;11.28;71.53
60642;BME280;46837;52.446;-1.930;2023-05-15T01:09:09;100538.57;;;11.22;71.34
60642;BME280;46837;52.446;-1.930;2023-05-15T01:10:09;100539.57;;;11.27;71.45
60642;BME280;46837;52.446;-1.930;2023-05-15T01:11:09;100538.97;;;11.27;71.33
60642;BME280;46837;52.446;-1.930;2023-05-15T01:12:09;100537.05;;;11.27;71.23
60642;BME280;46837;52.446;-1.930;2023-05-15T01:13:09;100535.76;;;11.30;71.18
60642;BME280;46837;52.446;-1.930;2023-05-15T01:14:09;100537.57;;;11.30;71.17
60642;BME280;46837;52.446;-1.930;2023-05-15T01:15:09;100538.35;;;11.32;71.05
60642;BME280;46837;52.446;-1.930;2023-05-15T01:16:09;100538.60;;;11.27;71.15
60642;BME280;46837;52.446;-1.930;2023-05-15T01:17:09;100536.97;;;11.29;71.16
60642;BME280;46837;52.446;-1.930;2023-05-15T01:18:09;100544.49;;;11.33;71.09
60642;BME280;46837;52.446;-1.930;2023-05-15T01:19:09;100544.91;;;11.31;70.94
60642;BME280;46837;52.446;-1.930;2023-05-15T01:20:10;100543.53;;;11.30;70.98
60642;BME280;46837;52.446;-1.930;2023-05-15T01:23:17;100541.66;;;11.20;71.16
60642;BME280;46837;52.446;-1.930;2023-05-15T01:28:13;100549.10;;;11.28;71.12
60642;BME280;46837;52.446;-1.930;2023-05-15T01:31:13;100549.30;;;11.32;70.82
60642;BME280;46837;52.446;-1.930;2023-05-15T01:32:10;100543.77;;;11.32;70.79
60642;BME280;46837;52.446;-1.930;2023-05-15T01:34:09;100552.21;;;11.27;70.92
60642;BME280;46837;52.446;-1.930;2023-05-15T01:37:09;100545.37;;;11.17;71.27
60642;BME280;46837;52.446;-1.930;2023-05-15T01:39:10;100548.95;;;11.19;71.11
60642;BME280;46837;52.446;-1.930;2023-05-15T01:40:10;100555.39;;;11.18;71.22
60642;BME280;46837;52.446;-1.930;2023-05-15T01:41:17;100550.02;;;11.18;71.23
60642;BME280;46837;52.446;-1.930;2023-05-15T01:42:10;100551.57;;;11.21;71.18
60642;BME280;46837;52.446;-1.930;2023-05-15T01:43:10;100555.79;;;11.21;71.13
60642;BME280;46837;52.446;-1.930;2023-05-15T01:45:10;100556.55;;;11.28;71.00
60642;BME280;46837;52.446;-1.930;2023-05-15T01:46:09;100559.30;;;11.30;71.00
60642;BME280;46837;52.446;-1.930;2023-05-15T01:47:13;100558.15;;;11.30;71.03
60642;BME280;46837;52.446;-1.930;2023-05-15T01:48:09;100558.60;;;11.33;71.00
60642;BME280;46837;52.446;-1.930;2023-05-15T01:49:10;100559.88;;;11.35;71.08
60642;BME280;46837;52.446;-1.930;2023-05-15T01:50:09;100561.63;;;11.36;70.96
60642;BME280;46837;52.446;-1.930;2023-05-15T01:51:10;100563.36;;;11.34;70.98
60642;BME280;46837;52.446;-1.930;2023-05-15T01:53:09;100563.04;;;11.27;71.08
60642;BME280;46837;52.446;-1.930;2023-05-15T01:54:09;100565.43;;;11.31;70.96
60642;BME280;46837;52.446;-1.930;2023-05-15T01:55:09;100565.46;;;11.28;71.01
60642;BME280;46837;52.446;-1.930;2023-05-15T01:56:11;100567.09;;;11.25;71.09
60642;BME280;46837;52.446;-1.930;2023-05-15T01:57:09;100566.72;;;11.20;71.22
60642;BME280;46837;52.446;-1.930;2023-05-15T01:58:09;100563.83;;;11.21;71.16
60642;BME280;46837;52.446;-1.930;2023-05-15T01:59:09;100565.71;;;11.22;71.12
60642;BME280;46837;52.446;-1.930;2023-05-15T02:00:10;100568.45;;;11.25;71.01
60642;BME280;46837;52.446;-1.930;2023-05-15T02:01:09;100564.43;;;11.14;71.29
60642;BME280;46837;52.446;-1.930;2023-05-15T02:02:10;100564.67;;;11.17;71.25
60642;BME280;46837;52.446;-1.930;2023-05-15T02:03:09;100569.68;;;11.14;71.29
60642;BME280;46837;52.446;-1.930;2023-05-15T02:04:09;100567.50;;;11.06;71.53
60642;BME280;46837;52.446;-1.930;2023-05-15T02:05:09;100565.34;;;11.01;71.68
60642;BME280;46837;52.446;-1.930;2023-05-15T02:06:09;100569.50;;;11.03;71.65
60642;BME280;46837;52.446;-1.930;2023-05-15T02:07:09;100566.35;;;11.06;71.48
60642;BME280;46837;52.446;-1.930;2023-05-15T02:08:09;100570.73;;;10.99;71.60
60642;BME280;46837;52.446;-1.930;2023-05-15T02:09:09;100568.99;;;10.93;71.79
60642;BME280;46837;52.446;-1.930;2023-05-15T02:10:09;100569.85;;;10.92;71.99
60642;BME280;46837;52.446;-1.930;2023-05-15T02:11:09;100569.57;;;10.99;71.82
60642;BME280;46837;52.446;-1.930;2023-05-15T02:12:09;100573.35;;;10.98;71.76
60642;BME280;46837;52.446;-1.930;2023-05-15T02:13:09;100567.45;;;10.93;71.93
60642;BME280;46837;52.446;-1.930;2023-05-15T02:14:09;100570.64;;;10.82;72.36
60642;BME280;46837;52.446;-1.930;2023-05-15T02:15:09;100571.38;;;10.85;72.27
60642;BME280;46837;52.446;-1.930;2023-05-15T02:16:09;100572.02;;;10.89;72.16
60642;BME280;46837;52.446;-1.930;2023-05-15T02:17:09;100569.61;;;10.80;72.44
60642;BME280;46837;52.446;-1.930;2023-05-15T02:18:09;100567.75;;;10.82;72.43
60642;BME280;46837;52.446;-1.930;2023-05-15T02:19:09;100573.52;;;10.84;72.36
60642;BME280;46837;52.446;-1.930;2023-05-15T02:20:09;100570.65;;;10.81;72.45
60642;BME280;46837;52.446;-1.930;2023-05-15T02:21:09;100569.06;;;10.81;72.52
60642;BME280;46837;52.446;-1.930;2023-05-15T02:22:09;100574.36;;;10.82;72.56
60642;BME280;46837;52.446;-1.930;2023-05-15T02:23:09;100576.11;;;10.82;72.64
60642;BME280;46837;52.446;-1.930;2023-05-15T02:24:09;100571.31;;;10.83;72.56
60642;BME280;46837;52.446;-1.930;2023-05-15T02:25:09;100570.31;;;10.82;72.69
60642;BME280;46837;52.446;-1.930;2023-05-15T02:28:15;100572.93;;;10.81;72.67
60642;BME280;46837;52.446;-1.930;2023-05-15T02:29:17;100573.44;;;10.81;72.74
60642;BME280;46837;52.446;-1.930;2023-05-15T02:31:22;100572.77;;;10.81;72.73
60642;BME280;46837;52.446;-1.930;2023-05-15T02:35:23;100570.42;;;10.80;72.75
60642;BME280;46837;52.446;-1.930;2023-05-15T02:36:10;100574.41;;;10.81;72.75
60642;BME280;46837;52.446;-1.930;2023-05-15T02:37:12;100573.23;;;10.83;72.72
60642;BME280;46837;52.446;-1.930;2023-05-15T02:38:12;100576.48;;;10.73;72.93
60642;BME280;46837;52.446;-1.930;2023-05-15T02:39:10;100573.88;;;10.71;73.15
60642;BME280;46837;52.446;-1.930;2023-05-15T02:40:09;100573.93;;;10.76;72.97
60642;BME280;46837;52.446;-1.930;2023-05-15T02:41:09;100577.88;;;10.77;72.87
60642;BME280;46837;52.446;-1.930;2023-05-15T02:42:09;100576.68;;;10.72;73.11
60642;BME280;46837;52.446;-1.930;2023-05-15T02:43:09;100575.70;;;10.66;73.27
60642;BME280;46837;52.446;-1.930;2023-05-15T02:44:09;100578.73;;;10.67;73.21
60642;BME280;46837;52.446;-1.930;2023-05-15T02:45:09;100574.68;;;10.67;73.24
60642;BME280;46837;52.446;-1.930;2023-05-15T02:46:09;100579.01;;;10.63;73.34
60642;BME280;46837;52.446;-1.930;2023-05-15T02:47:09;100574.54;;;10.63;73.34
60642;BME280;46837;52.446;-1.930;2023-05-15T02:48:09;100576.53;;;10.66;73.12
60642;BME280;46837;52.446;-1.930;2023-05-15T02:49:09;100578.43;;;10.65;73.18
60642;BME280;46837;52.446;-1.930;2023-05-15T02:50:09;100578.05;;;10.65;73.11
60642;BME280;46837;52.446;-1.930;2023-05-15T02:51:09;100578.89;;;10.67;73.07
60642;BME280;46837;52.446;-1.930;2023-05-15T02:52:09;100579.02;;;10.65;73.12
60642;BME280;46837;52.446;-1.930;2023-05-15T02:53:09;100577.30;;;10.67;73.10
60642;BME280;46837;52.446;-1.930;2023-05-15T02:54:09;100581.30;;;10.62;73.18
60642;BME280;46837;52.446;-1.930;2023-05-15T02:55:09;100581.19;;;10.63;73.14
60642;BME280;46837;52.446;-1.930;2023-05-15T02:56:09;100583.38;;;10.64;73.10
60642;BME280;46837;52.446;-1.930;2023-05-15T02:57:09;100583.62;;;10.65;73.02
60642;BME280;46837;52.446;-1.930;2023-05-15T02:58:09;100580.15;;;10.62;73.05
60642;BME280;46837;52.446;-1.930;2023-05-15T02:59:09;100583.66;;;10.64;72.94
60642;BME280;46837;52.446;-1.930;2023-05-15T03:00:10;100579.40;;;10.58;73.00
60642;BME280;46837;52.446;-1.930;2023-05-15T03:01:09;100584.99;;;10.53;73.18
60642;BME280;46837;52.446;-1.930;2023-05-15T03:02:09;100582.97;;;10.50;73.33
60642;BME280;46837;52.446;-1.930;2023-05-15T03:03:09;100586.26;;;10.50;73.17
60642;BME280;46837;52.446;-1.930;2023-05-15T03:04:09;100587.16;;;10.54;73.04
60642;BME280;46837;52.446;-1.930;2023-05-15T03:05:09;100586.39;;;10.53;72.98
60642;BME280;46837;52.446;-1.930;2023-05-15T03:06:09;100585.82;;;10.55;72.93
60642;BME280;46837;52.446;-1.930;2023-05-15T03:07:09;100581.98;;;10.52;72.92
60642;BME280;46837;52.446;-1.930;2023-05-15T03:08:09;100585.80;;;10.54;72.83
60642;BME280;46837;52.446;-1.930;2023-05-15T03:09:09;100589.07;;;10.52;72.82
60642;BME280;46837;52.446;-1.930;2023-05-15T03:10:09;100588.60;;;10.48;72.83
60642;BME280;46837;52.446;-1.930;2023-05-15T03:11:09;100589.35;;;10.47;72.94
60642;BME280;46837;52.446;-1.930;2023-05-15T03:12:09;100585.83;;;10.46;72.86
60642;BME280;46837;52.446;-1.930;2023-05-15T03:13:09;100590.07;;;10.43;72.84
60642;BME280;46837;52.446;-1.930;2023-05-15T03:14:09;100592.14;;;10.37;73.12
60642;BME280;46837;52.446;-1.930;2023-05-15T03:15:09;100588.28;;;10.34;73.02
60642;BME280;46837;52.446;-1.930;2023-05-15T03:16:09;100594.14;;;10.36;72.96
60642;BME280;46837;52.446;-1.930;2023-05-15T03:17:09;100590.58;;;10.39;72.77
60642;BME280;46837;52.446;-1.930;2023-05-15T03:18:09;100594.82;;;10.37;72.74
60642;BME280;46837;52.446;-1.930;2023-05-15T03:19:09;100595.17;;;10.39;72.74
60642;BME280;46837;52.446;-1.930;2023-05-15T03:20:09;100597.30;;;10.39;72.62
60642;BME280;46837;52.446;-1.930;2023-05-15T03:21:09;100598.65;;;10.42;72.58
60642;BME280;46837;52.446;-1.930;2023-05-15T03:22:09;100595.82;;;10.34;72.63
60642;BME280;46837;52.446;-1.930;2023-05-15T03:23:09;100598.17;;;10.28;72.84
60642;BME280;46837;52.446;-1.930;2023-05-15T03:24:09;100603.15;;;10.36;72.70
60642;BME280;46837;52.446;-1.930;2023-05-15T03:25:11;100604.17;;;10.33;72.59
60642;BME280;46837;52.446;-1.930;2023-05-15T03:26:09;100605.22;;;10.34;72.64
60642;BME280;46837;52.446;-1.930;2023-05-15T03:27:09;100604.88;;;10.38;72.42
60642;BME280;46837;52.446;-1.930;2023-05-15T03:28:09;100603.46;;;10.33;72.36
60642;BME280;46837;52.446;-1.930;2023-05-15T03:29:09;100606.88;;;10.26;72.57
60642;BME280;46837;52.446;-1.930;2023-05-15T03:30:09;100606.08;;;10.29;72.51
60642;BME280;46837;52.446;-1.930;2023-05-15T03:31:09;100609.58;;;10.27;72.47
60642;BME280;46837;52.446;-1.930;2023-05-15T03:32:09;100604.64;;;10.26;72.48
60642;BME280;46837;52.446;-1.930;2023-05-15T03:33:09;100608.08;;;10.25;72.43
60642;BME280;46837;52.446;-1.930;2023-05-15T03:34:09;100609.00;;;10.19;72.54
60642;BME280;46837;52.446;-1.930;2023-05-15T03:35:09;100608.99;;;10.23;72.44
60642;BME280;46837;52.446;-1.930;2023-05-15T03:36:09;100614.38;;;10.22;72.37
60642;BME280;46837;52.446;-1.930;2023-05-15T03:37:09;100606.99;;;10.15;72.52
60642;BME280;46837;52.446;-1.930;2023-05-15T03:38:09;100605.34;;;10.13;72.63
60642;BME280;46837;52.446;-1.930;2023-05-15T03:39:09;100609.79;;;10.11;72.72
60642;BME280;46837;52.446;-1.930;2023-05-15T03:40:09;100607.91;;;10.14;72.59
60642;BME280;46837;52.446;-1.930;2023-05-15T03:41:09;100606.29;;;10.07;72.61
60642;BME280;46837;52.446;-1.930;2023-05-15T03:42:09;100607.02;;;10.04;72.73
60642;BME280;46837;52.446;-1.930;2023-05-15T03:43:09;100608.45;;;10.09;72.58
60642;BME280;46837;52.446;-1.930;2023-05-15T03:44:09;100609.45;;;10.10;72.48
60642;BME280;46837;52.446;-1.930;2023-05-15T03:45:09;100607.74;;;10.09;72.31
60642;BME280;46837;52.446;-1.930;2023-05-15T03:46:09;100605.77;;;10.00;72.54
60642;BME280;46837;52.446;-1.930;2023-05-15T03:47:09;100605.08;;;9.96;72.87
60642;BME280;46837;52.446;-1.930;2023-05-15T03:48:09;100607.87;;;10.01;72.72
60642;BME280;46837;52.446;-1.930;2023-05-15T03:49:09;100610.48;;;9.97;72.61
60642;BME280;46837;52.446;-1.930;2023-05-15T03:50:09;100609.55;;;9.97;72.62
60642;BME280;46837;52.446;-1.930;2023-05-15T03:51:09;100610.93;;;9.96;72.69
60642;BME280;46837;52.446;-1.930;2023-05-15T03:52:09;100609.52;;;9.98;72.56
60642;BME280;46837;52.446;-1.930;2023-05-15T03:53:09;100604.88;;;9.90;72.69
60642;BME280;46837;52.446;-1.930;2023-05-15T03:54:09;100607.25;;;9.87;72.66
60642;BME280;46837;52.446;-1.930;2023-05-15T03:55:09;100605.29;;;9.84;72.78
60642;BME280;46837;52.446;-1.930;2023-05-15T03:56:09;100607.69;;;9.87;72.72
60642;BME280;46837;52.446;-1.930;2023-05-15T03:57:09;100608.98;;;9.89;72.63
60642;BME280;46837;52.446;-1.930;2023-05-15T03:58:09;100609.26;;;9.89;72.54
60642;BME280;46837;52.446;-1.930;2023-05-15T03:59:09;100612.67;;;9.88;72.55
60642;BME280;46837;52.446;-1.930;2023-05-15T04:00:11;100611.67;;;9.87;72.55
60642;BME280;46837;52.446;-1.930;2023-05-15T04:01:09;100610.86;;;9.83;72.56
60642;BME280;46837;52.446;-1.930;2023-05-15T04:02:09;100614.68;;;9.83;72.61
60642;BME280;46837;52.446;-1.930;2023-05-15T04:03:09;100611.39;;;9.86;72.60
60642;BME280;46837;52.446;-1.930;2023-05-15T04:04:09;100617.27;;;9.89;72.46
60642;BME280;46837;52.446;-1.930;2023-05-15T04:05:09;100614.98;;;9.85;72.42
60642;BME280;46837;52.446;-1.930;2023-05-15T04:06:09;100619.18;;;9.81;72.53
60642;BME280;46837;52.446;-1.930;2023-05-15T04:07:09;100616.71;;;9.75;72.53
60642;BME280;46837;52.446;-1.930;2023-05-15T04:08:09;100618.31;;;9.73;72.63
60642;BME280;46837;52.446;-1.930;2023-05-15T04:09:09;100620.99;;;9.68;72.75
60642;BME280;46837;52.446;-1.930;2023-05-15T04:10:09;100625.02;;;9.69;72.76
60642;BME280;46837;52.446;-1.930;2023-05-15T04:11:09;100626.18;;;9.66;72.74
60642;BME280;46837;52.446;-1.930;2023-05-15T04:12:09;100623.68;;;9.66;72.75
60642;BME280;46837;52.446;-1.930;2023-05-15T04:13:09;100624.61;;;9.63;72.84
60642;BME280;46837;52.446;-1.930;2023-05-15T04:14:09;100620.67;;;9.62;72.86
60642;BME280;46837;52.446;-1.930;2023-05-15T04:16:09;100624.07;;;9.67;72.69
60642;BME280;46837;52.446;-1.930;2023-05-15T04:17:09;100628.08;;;9.66;72.62
60642;BME280;46837;52.446;-1.930;2023-05-15T04:18:09;100629.60;;;9.56;72.97
60642;BME280;46837;52.446;-1.930;2023-05-15T04:19:09;100629.06;;;9.53;73.00
60642;BME280;46837;52.446;-1.930;2023-05-15T04:20:09;100630.62;;;9.52;73.16
60642;BME280;46837;52.446;-1.930;2023-05-15T04:21:09;100630.27;;;9.54;73.13
60642;BME280;46837;52.446;-1.930;2023-05-15T04:22:09;100626.75;;;9.49;73.05
60642;BME280;46837;52.446;-1.930;2023-05-15T04:23:09;100631.98;;;9.51;73.29
60642;BME280;46837;52.446;-1.930;2023-05-15T04:24:09;100632.09;;;9.51;73.19
60642;BME280;46837;52.446;-1.930;2023-05-15T04:25:09;100628.93;;;9.49;73.31
60642;BME280;46837;52.446;-1.930;2023-05-15T04:26:09;100635.61;;;9.50;73.32
60642;BME280;46837;52.446;-1.930;2023-05-15T04:27:09;100632.30;;;9.52;73.16
60642;BME280;46837;52.446;-1.930;2023-05-15T04:28:09;100636.43;;;9.53;73.01
60642;BME280;46837;52.446;-1.930;2023-05-15T04:29:09;100639.22;;;9.58;72.91
60642;BME280;46837;52.446;-1.930;2023-05-15T04:30:09;100636.08;;;9.52;73.00
60642;BME280;46837;52.446;-1.930;2023-05-15T04:31:09;100640.11;;;9.54;73.04
60642;BME280;46837;52.446;-1.930;2023-05-15T04:32:09;100638.95;;;9.54;73.03
60642;BME280;46837;52.446;-1.930;2023-05-15T04:33:09;100638.01;;;9.57;73.06
60642;BME280;46837;52.446;-1.930;2023-05-15T04:34:09;100634.31;;;9.58;72.90
60642;BME280;46837;52.446;-1.930;2023-05-15T04:35:09;100636.48;;;9.53;73.11
60642;BME280;46837;52.446;-1.930;2023-05-15T04:36:09;100636.67;;;9.48;73.30
60642;BME280;46837;52.446;-1.930;2023-05-15T04:37:09;100642.55;;;9.50;73.30
60642;BME280;46837;52.446;-1.930;2023-05-15T04:38:09;100642.70;;;9.46;73.35
60642;BME280;46837;52.446;-1.930;2023-05-15T04:39:09;100639.42;;;9.49;73.34
60642;BME280;46837;52.446;-1.930;2023-05-15T04:40:09;100644.77;;;9.53;73.21
60642;BME280;46837;52.446;-1.930;2023-05-15T04:41:09;100642.43;;;9.53;73.16
60642;BME280;46837;52.446;-1.930;2023-05-15T04:42:09;100643.27;;;9.51;73.23
60642;BME280;46837;52.446;-1.930;2023-05-15T04:43:09;100647.59;;;9.52;73.11
60642;BME280;46837;52.446;-1.930;2023-05-15T04:44:09;100648.82;;;9.50;73.25
60642;BME280;46837;52.446;-1.930;2023-05-15T04:45:09;100654.09;;;9.45;73.39
60642;BME280;46837;52.446;-1.930;2023-05-15T04:46:09;100652.11;;;9.48;73.33
60642;BME280;46837;52.446;-1.930;2023-05-15T04:47:09;100649.52;;;9.50;73.30
60642;BME280;46837;52.446;-1.930;2023-05-15T04:48:09;100652.30;;;9.46;73.37
60642;BME280;46837;52.446;-1.930;2023-05-15T04:49:09;100653.97;;;9.44;73.51
60642;BME280;46837;52.446;-1.930;2023-05-15T04:50:09;100655.27;;;9.47;73.49
60642;BME280;46837;52.446;-1.930;2023-05-15T04:51:09;100652.09;;;9.53;73.27
60642;BME280;46837;52.446;-1.930;2023-05-15T04:52:09;100655.13;;;9.53;73.26
60642;BME280;46837;52.446;-1.930;2023-05-15T04:53:09;100661.48;;;9.50;73.36
60642;BME280;46837;52.446;-1.930;2023-05-15T04:54:09;100653.30;;;9.54;73.27
60642;BME280;46837;52.446;-1.930;2023-05-15T04:55:09;100654.69;;;9.53;73.22
60642;BME280;46837;52.446;-1.930;2023-05-15T04:56:09;100654.18;;;9.52;73.25
60642;BME280;46837;52.446;-1.930;2023-05-15T04:57:09;100658.88;;;9.49;73.36
60642;BME280;46837;52.446;-1.930;2023-05-15T04:58:09;100653.63;;;9.50;73.28
60642;BME280;46837;52.446;-1.930;2023-05-15T04:59:09;100656.49;;;9.53;73.16
60642;BME280;46837;52.446;-1.930;2023-05-15T05:00:13;100653.09;;;9.54;73.16
60642;BME280;46837;52.446;-1.930;2023-05-15T05:01:09;100656.90;;;9.58;73.14
60642;BME280;46837;52.446;-1.930;2023-05-15T05:02:09;100653.86;;;9.55;73.16
60642;BME280;46837;52.446;-1.930;2023-05-15T05:03:09;100655.61;;;9.59;72.99
60642;BME280;46837;52.446;-1.930;2023-05-15T05:04:09;100655.36;;;9.57;73.03
60642;BME280;46837;52.446;-1.930;2023-05-15T05:05:09;100659.64;;;9.55;73.09
60642;BME280;46837;52.446;-1.930;2023-05-15T05:06:09;100658.95;;;9.53;73.17
60642;BME280;46837;52.446;-1.930;2023-05-15T05:07:09;100656.57;;;9.54;73.08
60642;BME280;46837;52.446;-1.930;2023-05-15T05:08:09;100657.23;;;9.58;72.99
60642;BME280;46837;52.446;-1.930;2023-05-15T05:09:09;100659.24;;;9.57;72.97
60642;BME280;46837;52.446;-1.930;2023-05-15T05:10:09;100663.58;;;9.60;72.87
60642;BME280;46837;52.446;-1.930;2023-05-15T05:11:09;100663.43;;;9.60;72.95
60642;BME280;46837;52.446;-1.930;2023-05-15T05:12:09;100665.36;;;9.62;72.81
60642;BME280;46837;52.446;-1.930;2023-05-15T05:13:09;100660.76;;;9.65;72.67
60642;BME280;46837;52.446;-1.930;2023-05-15T05:14:09;100659.35;;;9.65;72.56
60642;BME280;46837;52.446;-1.930;2023-05-15T05:15:09;100664.54;;;9.65;72.64
60642;BME280;46837;52.446;-1.930;2023-05-15T05:16:09;100667.88;;;9.63;72.62
60642;BME280;46837;52.446;-1.930;2023-05-15T05:17:09;100666.41;;;9.66;72.57
60642;BME280;46837;52.446;-1.930;2023-05-15T05:18:09;100667.16;;;9.61;72.57
60642;BME280;46837;52.446;-1.930;2023-05-15T05:19:09;100673.12;;;9.63;72.65
60642;BME280;46837;52.446;-1.930;2023-05-15T05:20:10;100669.39;;;9.65;72.55
60642;BME280;46837;52.446;-1.930;2023-05-15T05:21:09;100673.30;;;9.67;72.41
60642;BME280;46837;52.446;-1.930;2023-05-15T05:22:09;100671.40;;;9.61;72.62
60642;BME280;46837;52.446;-1.930;2023-05-15T05:23:09;100667.44;;;9.66;72.55
60642;BME280;46837;52.446;-1.930;2023-05-15T05:24:09;100667.12;;;9.71;72.42
60642;BME280;46837;52.446;-1.930;2023-05-15T05:25:09;100667.41;;;9.67;72.47
60642;BME280;46837;52.446;-1.930;2023-05-15T05:26:09;100665.12;;;9.73;72.52
60642;BME280;46837;52.446;-1.930;2023-05-15T05:27:09;100668.36;;;9.77;72.40
60642;BME280;46837;52.446;-1.930;2023-05-15T05:28:09;100671.24;;;9.77;72.24
60642;BME280;46837;52.446;-1.930;2023-05-15T05:29:09;100675.38;;;9.79;72.19
60642;BME280;46837;52.446;-1.930;2023-05-15T05:30:09;100671.78;;;9.79;72.12
60642;BME280;46837;52.446;-1.930;2023-05-15T05:31:09;100669.82;;;9.75;72.03